sensor_id;sensor_type;location;lat;lon;timestamp;pressure;altitude;pressure_sealevel;temperature;humidity
65659;BME280;60181;53.258;6.932;2023-04-16T00:04:00;102215.68;;;15.10;60.10
65659;BME280;60181;53.258;6.932;2023-04-16T00:08:04;102217.92;;;15.08;60.03
65659;BME280;60181;53.258;6.932;2023-04-16T00:12:08;102222.09;;;15.08;59.97
65659;BME280;60181;53.258;6.932;2023-04-16T00:16:12;102225.15;;;15.07;59.96
65659;BME280;60181;53.258;6.932;2023-04-16T00:20:16;102226.59;;;15.06;59.92
65659;BME280;60181;53.258;6.932;2023-04-16T00:24:20;102228.09;;;15.04;59.75
65659;BME280;60181;53.258;6.932;2023-04-16T00:28:25;102228.85;;;15.02;59.81
65659;BME280;60181;53.258;6.932;2023-04-16T00:32:29;102230.71;;;15.01;59.74
65659;BME280;60181;53.258;6.932;2023-04-16T00:36:32;102233.51;;;15.01;59.61
65659;BME280;60181;53.258;6.932;2023-04-16T00:40:36;102234.50;;;15.01;59.48
65659;BME280;60181;53.258;6.932;2023-04-16T00:44:40;102236.07;;;15.00;59.63
65659;BME280;60181;53.258;6.932;2023-04-16T00:48:44;102238.05;;;15.00;59.71
65659;BME280;60181;53.258;6.932;2023-04-16T00:52:48;102239.37;;;15.00;59.79
65659;BME280;60181;53.258;6.932;2023-04-16T00:56:52;102240.86;;;15.00;60.03
65659;BME280;60181;53.258;6.932;2023-04-16T01:00:56;102243.42;;;15.01;60.12
65659;BME280;60181;53.258;6.932;2023-04-16T01:05:01;102247.38;;;15.01;60.13
65659;BME280;60181;53.258;6.932;2023-04-16T01:09:04;102250.43;;;15.00;60.52
65659;BME280;60181;53.258;6.932;2023-04-16T01:13:08;102251.45;;;15.01;60.32
65659;BME280;60181;53.258;6.932;2023-04-16T01:17:12;102252.64;;;15.02;60.46
65659;BME280;60181;53.258;6.932;2023-04-16T01:21:16;102255.45;;;15.03;60.30
65659;BME280;60181;53.258;6.932;2023-04-16T01:25:20;102257.51;;;15.03;60.27
65659;BME280;60181;53.258;6.932;2023-04-16T01:29:24;102259.99;;;15.03;60.40
65659;BME280;60181;53.258;6.932;2023-04-16T01:33:28;102262.63;;;15.03;60.32
65659;BME280;60181;53.258;6.932;2023-04-16T01:37:32;102264.49;;;15.02;60.43
65659;BME280;60181;53.258;6.932;2023-04-16T01:41:36;102265.65;;;15.01;60.21
65659;BME280;60181;53.258;6.932;2023-04-16T01:45:41;102266.03;;;15.01;60.30
65659;BME280;60181;53.258;6.932;2023-04-16T01:49:44;102266.24;;;15.00;60.43
65659;BME280;60181;53.258;6.932;2023-04-16T01:53:48;102264.96;;;14.98;60.41
65659;BME280;60181;53.258;6.932;2023-04-16T01:57:52;102264.84;;;14.97;60.52
65659;BME280;60181;53.258;6.932;2023-04-16T02:01:59;102266.05;;;14.96;60.29
65659;BME280;60181;53.258;6.932;2023-04-16T02:06:00;102266.96;;;14.96;60.18
65659;BME280;60181;53.258;6.932;2023-04-16T02:10:05;102266.83;;;14.95;60.16
65659;BME280;60181;53.258;6.932;2023-04-16T02:14:08;102266.50;;;14.94;60.14
65659;BME280;60181;53.258;6.932;2023-04-16T02:18:12;102265.52;;;14.94;60.13
65659;BME280;60181;53.258;6.932;2023-04-16T02:22:16;102265.26;;;14.95;60.32
65659;BME280;60181;53.258;6.932;2023-04-16T02:26:20;102265.52;;;14.95;60.39
65659;BME280;60181;53.258;6.932;2023-04-16T02:30:24;102266.67;;;14.95;60.58
65659;BME280;60181;53.258;6.932;2023-04-16T02:34:28;102267.41;;;14.95;60.21
65659;BME280;60181;53.258;6.932;2023-04-16T02:38:32;102270.17;;;14.96;60.27
65659;BME280;60181;53.258;6.932;2023-04-16T02:42:36;102270.95;;;14.95;60.32
65659;BME280;60181;53.258;6.932;2023-04-16T02:46:40;102271.17;;;14.94;61.14
65659;BME280;60181;53.258;6.932;2023-04-16T02:50:44;102271.91;;;14.94;60.25
65659;BME280;60181;53.258;6.932;2023-04-16T02:54:48;102273.11;;;14.93;60.55
65659;BME280;60181;53.258;6.932;2023-04-16T02:58:52;102275.83;;;14.92;60.14
65659;BME280;60181;53.258;6.932;2023-04-16T03:02:56;102276.95;;;14.92;60.13
65659;BME280;60181;53.258;6.932;2023-04-16T03:07:00;102279.02;;;14.91;60.46
65659;BME280;60181;53.258;6.932;2023-04-16T03:11:04;102280.80;;;14.91;60.79
65659;BME280;60181;53.258;6.932;2023-04-16T03:15:08;102281.62;;;14.91;60.45
65659;BME280;60181;53.258;6.932;2023-04-16T03:19:12;102282.72;;;14.91;60.56
65659;BME280;60181;53.258;6.932;2023-04-16T03:23:16;102283.59;;;14.91;60.35
65659;BME280;60181;53.258;6.932;2023-04-16T03:27:20;102284.72;;;14.89;60.60
65659;BME280;60181;53.258;6.932;2023-04-16T03:31:24;102287.90;;;14.89;60.00
65659;BME280;60181;53.258;6.932;2023-04-16T03:35:28;102290.88;;;14.86;60.28
65659;BME280;60181;53.258;6.932;2023-04-16T03:39:32;102295.36;;;14.87;60.89
65659;BME280;60181;53.258;6.932;2023-04-16T03:43:36;102299.06;;;14.89;60.80
65659;BME280;60181;53.258;6.932;2023-04-16T03:47:40;102302.45;;;14.92;60.90
65659;BME280;60181;53.258;6.932;2023-04-16T03:51:44;102305.16;;;14.94;60.61
65659;BME280;60181;53.258;6.932;2023-04-16T03:55:49;102308.00;;;14.95;60.65
65659;BME280;60181;53.258;6.932;2023-04-16T03:59:52;102309.58;;;14.95;60.81
65659;BME280;60181;53.258;6.932;2023-04-16T04:03:56;102310.52;;;14.96;60.84
65659;BME280;60181;53.258;6.932;2023-04-16T04:08:00;102310.19;;;14.96;60.89
65659;BME280;60181;53.258;6.932;2023-04-16T04:12:04;102309.94;;;14.96;60.96
65659;BME280;60181;53.258;6.932;2023-04-16T04:16:08;102310.80;;;14.97;60.82
65659;BME280;60181;53.258;6.932;2023-04-16T04:20:12;102311.63;;;14.97;60.89
65659;BME280;60181;53.258;6.932;2023-04-16T04:24:16;102313.85;;;14.97;60.99
65659;BME280;60181;53.258;6.932;2023-04-16T04:28:20;102316.71;;;14.96;61.02
65659;BME280;60181;53.258;6.932;2023-04-16T04:32:24;102319.18;;;14.96;60.87
65659;BME280;60181;53.258;6.932;2023-04-16T04:36:28;102320.25;;;14.96;60.99
65659;BME280;60181;53.258;6.932;2023-04-16T04:40:32;102320.83;;;14.96;60.98
65659;BME280;60181;53.258;6.932;2023-04-16T04:44:36;102321.90;;;14.96;60.99
65659;BME280;60181;53.258;6.932;2023-04-16T04:48:40;102323.39;;;14.96;60.88
65659;BME280;60181;53.258;6.932;2023-04-16T04:52:44;102326.51;;;14.96;60.97
65659;BME280;60181;53.258;6.932;2023-04-16T04:56:48;102329.05;;;14.95;61.01
65659;BME280;60181;53.258;6.932;2023-04-16T05:00:52;102330.44;;;14.95;60.99
65659;BME280;60181;53.258;6.932;2023-04-16T05:04:56;102333.08;;;14.95;61.16
65659;BME280;60181;53.258;6.932;2023-04-16T05:09:00;102334.99;;;14.94;60.98
65659;BME280;60181;53.258;6.932;2023-04-16T05:13:04;102337.17;;;14.94;60.92
65659;BME280;60181;53.258;6.932;2023-04-16T05:17:08;102338.90;;;14.94;60.88
65659;BME280;60181;53.258;6.932;2023-04-16T05:21:12;102341.22;;;14.94;60.96
65659;BME280;60181;53.258;6.932;2023-04-16T05:25:16;102344.51;;;14.94;60.87
65659;BME280;60181;53.258;6.932;2023-04-16T05:29:20;102347.57;;;14.94;60.89
65659;BME280;60181;53.258;6.932;2023-04-16T05:33:24;102350.70;;;14.96;60.81
65659;BME280;60181;53.258;6.932;2023-04-16T05:37:28;102353.79;;;14.97;61.24
65659;BME280;60181;53.258;6.932;2023-04-16T05:41:32;102358.00;;;14.97;61.31
65659;BME280;60181;53.258;6.932;2023-04-16T05:45:36;102360.72;;;14.97;61.28
65659;BME280;60181;53.258;6.932;2023-04-16T05:49:40;102363.11;;;14.97;61.23
65659;BME280;60181;53.258;6.932;2023-04-16T05:53:44;102365.55;;;14.96;61.14
65659;BME280;60181;53.258;6.932;2023-04-16T05:57:48;102368.44;;;14.96;61.26
65659;BME280;60181;53.258;6.932;2023-04-16T06:01:52;102371.15;;;14.96;61.07
65659;BME280;60181;53.258;6.932;2023-04-16T06:05:56;102373.80;;;14.96;61.05
65659;BME280;60181;53.258;6.932;2023-04-16T06:10:00;102376.45;;;14.96;60.97
65659;BME280;60181;53.258;6.932;2023-04-16T06:14:04;102380.69;;;14.97;60.99
65659;BME280;60181;53.258;6.932;2023-04-16T06:18:08;102385.06;;;14.97;60.94
65659;BME280;60181;53.258;6.932;2023-04-16T06:22:12;102389.26;;;14.97;60.93
65659;BME280;60181;53.258;6.932;2023-04-16T06:26:16;102393.64;;;14.97;61.07
65659;BME280;60181;53.258;6.932;2023-04-16T06:30:20;102398.92;;;14.97;61.08
65659;BME280;60181;53.258;6.932;2023-04-16T06:34:24;102404.61;;;14.97;61.05
65659;BME280;60181;53.258;6.932;2023-04-16T06:38:28;102409.28;;;14.96;61.07
65659;BME280;60181;53.258;6.932;2023-04-16T06:42:32;102413.66;;;14.96;61.02
65659;BME280;60181;53.258;6.932;2023-04-16T06:46:36;102417.79;;;14.96;61.14
65659;BME280;60181;53.258;6.932;2023-04-16T06:50:40;102420.80;;;14.95;61.12
65659;BME280;60181;53.258;6.932;2023-04-16T06:54:44;102424.76;;;14.95;61.09
65659;BME280;60181;53.258;6.932;2023-04-16T06:58:48;102428.22;;;14.95;61.08
65659;BME280;60181;53.258;6.932;2023-04-16T07:02:52;102431.52;;;14.95;61.05
65659;BME280;60181;53.258;6.932;2023-04-16T07:06:56;102435.02;;;14.96;61.01
65659;BME280;60181;53.258;6.932;2023-04-16T07:11:00;102438.16;;;14.96;60.96
65659;BME280;60181;53.258;6.932;2023-04-16T07:15:04;102442.29;;;14.99;60.82
65659;BME280;60181;53.258;6.932;2023-04-16T07:19:08;102445.58;;;15.02;60.84
65659;BME280;60181;53.258;6.932;2023-04-16T07:23:12;102449.12;;;15.04;60.69
65659;BME280;60181;53.258;6.932;2023-04-16T07:27:16;102453.08;;;15.07;60.52
65659;BME280;60181;53.258;6.932;2023-04-16T07:31:20;102455.92;;;15.08;60.57
65659;BME280;60181;53.258;6.932;2023-04-16T07:35:24;102457.70;;;15.10;60.48
65659;BME280;60181;53.258;6.932;2023-04-16T07:39:28;102459.68;;;15.12;60.38
65659;BME280;60181;53.258;6.932;2023-04-16T07:43:32;102461.00;;;15.14;60.33
65659;BME280;60181;53.258;6.932;2023-04-16T07:47:36;102463.79;;;15.17;60.29
65659;BME280;60181;53.258;6.932;2023-04-16T07:51:40;102465.56;;;15.19;60.18
65659;BME280;60181;53.258;6.932;2023-04-16T07:55:44;102467.98;;;15.22;60.12
65659;BME280;60181;53.258;6.932;2023-04-16T07:59:48;102470.83;;;15.26;60.06
65659;BME280;60181;53.258;6.932;2023-04-16T08:03:52;102474.57;;;15.29;60.02
65659;BME280;60181;53.258;6.932;2023-04-16T08:07:56;102478.28;;;15.34;59.91
65659;BME280;60181;53.258;6.932;2023-04-16T08:12:00;102481.16;;;15.38;59.85
65659;BME280;60181;53.258;6.932;2023-04-16T08:16:04;102484.30;;;15.43;59.75
65659;BME280;60181;53.258;6.932;2023-04-16T08:20:08;102485.44;;;15.47;59.76
65659;BME280;60181;53.258;6.932;2023-04-16T08:24:12;102487.12;;;15.51;59.78
65659;BME280;60181;53.258;6.932;2023-04-16T08:28:16;102488.32;;;15.54;59.78
65659;BME280;60181;53.258;6.932;2023-04-16T08:32:20;102488.51;;;15.57;59.67
65659;BME280;60181;53.258;6.932;2023-04-16T08:36:24;102489.81;;;15.62;59.45
65659;BME280;60181;53.258;6.932;2023-04-16T08:40:28;102491.96;;;15.66;59.52
65659;BME280;60181;53.258;6.932;2023-04-16T08:44:33;102493.33;;;15.71;59.41
65659;BME280;60181;53.258;6.932;2023-04-16T08:48:36;102495.47;;;15.75;59.32
65659;BME280;60181;53.258;6.932;2023-04-16T08:52:52;102498.43;;;15.79;59.35
65659;BME280;60181;53.258;6.932;2023-04-16T08:56:44;102502.00;;;15.83;59.37
65659;BME280;60181;53.258;6.932;2023-04-16T09:00:48;102504.76;;;15.86;59.35
65659;BME280;60181;53.258;6.932;2023-04-16T09:04:52;102508.17;;;15.88;59.39
65659;BME280;60181;53.258;6.932;2023-04-16T09:08:56;102510.94;;;15.90;59.45
65659;BME280;60181;53.258;6.932;2023-04-16T09:13:00;102513.23;;;15.91;59.35
65659;BME280;60181;53.258;6.932;2023-04-16T09:17:04;102515.50;;;15.93;59.35
65659;BME280;60181;53.258;6.932;2023-04-16T09:21:08;102516.58;;;15.95;59.24
65659;BME280;60181;53.258;6.932;2023-04-16T09:25:12;102517.40;;;15.97;59.23
65659;BME280;60181;53.258;6.932;2023-04-16T09:29:31;102519.36;;;15.99;59.26
65659;BME280;60181;53.258;6.932;2023-04-16T09:33:20;102521.30;;;16.01;59.31
65659;BME280;60181;53.258;6.932;2023-04-16T09:37:27;102524.11;;;16.01;59.30
65659;BME280;60181;53.258;6.932;2023-04-16T09:41:28;102525.88;;;16.01;59.28
65659;BME280;60181;53.258;6.932;2023-04-16T09:45:32;102528.20;;;16.02;59.39
65659;BME280;60181;53.258;6.932;2023-04-16T09:49:41;102529.93;;;16.02;59.46
65659;BME280;60181;53.258;6.932;2023-04-16T09:53:40;102532.53;;;16.03;59.08
65659;BME280;60181;53.258;6.932;2023-04-16T09:57:44;102534.56;;;16.04;59.19
65659;BME280;60181;53.258;6.932;2023-04-16T10:01:48;102536.69;;;16.06;59.30
65659;BME280;60181;53.258;6.932;2023-04-16T10:05:52;102537.27;;;16.08;59.35
65659;BME280;60181;53.258;6.932;2023-04-16T10:09:56;102538.33;;;16.10;59.31
65659;BME280;60181;53.258;6.932;2023-04-16T10:14:00;102539.55;;;16.13;59.39
65659;BME280;60181;53.258;6.932;2023-04-16T10:18:04;102540.75;;;16.14;59.38
65659;BME280;60181;53.258;6.932;2023-04-16T10:22:08;102541.28;;;16.16;59.33
65659;BME280;60181;53.258;6.932;2023-04-16T10:26:12;102542.19;;;16.17;59.29
65659;BME280;60181;53.258;6.932;2023-04-16T10:30:16;102541.81;;;16.18;59.27
65659;BME280;60181;53.258;6.932;2023-04-16T10:34:20;102541.14;;;16.19;59.35
65659;BME280;60181;53.258;6.932;2023-04-16T10:38:26;102541.17;;;16.20;59.40
65659;BME280;60181;53.258;6.932;2023-04-16T10:42:28;102540.72;;;16.21;59.36
65659;BME280;60181;53.258;6.932;2023-04-16T10:46:32;102539.47;;;16.23;59.39
65659;BME280;60181;53.258;6.932;2023-04-16T10:50:36;102539.42;;;16.24;59.39
65659;BME280;60181;53.258;6.932;2023-04-16T10:54:40;102539.62;;;16.25;59.56
65659;BME280;60181;53.258;6.932;2023-04-16T10:58:44;102540.36;;;16.25;59.71
65659;BME280;60181;53.258;6.932;2023-04-16T11:02:51;102540.53;;;16.26;59.75
65659;BME280;60181;53.258;6.932;2023-04-16T11:07:13;102539.00;;;16.26;59.69
65659;BME280;60181;53.258;6.932;2023-04-16T11:10:57;102538.87;;;16.28;59.70
65659;BME280;60181;53.258;6.932;2023-04-16T11:15:00;102538.71;;;16.28;59.74
65659;BME280;60181;53.258;6.932;2023-04-16T11:19:03;102538.82;;;16.29;59.75
65659;BME280;60181;53.258;6.932;2023-04-16T11:23:09;102539.01;;;16.29;59.82
65659;BME280;60181;53.258;6.932;2023-04-16T11:27:12;102539.69;;;16.30;59.82
65659;BME280;60181;53.258;6.932;2023-04-16T11:31:15;102540.95;;;16.31;59.82
65659;BME280;60181;53.258;6.932;2023-04-16T11:35:20;102542.77;;;16.31;59.84
65659;BME280;60181;53.258;6.932;2023-04-16T11:39:23;102545.26;;;16.31;59.93
65659;BME280;60181;53.258;6.932;2023-04-16T11:43:28;102548.23;;;16.31;59.85
65659;BME280;60181;53.258;6.932;2023-04-16T11:47:34;102551.50;;;16.32;59.81
65659;BME280;60181;53.258;6.932;2023-04-16T11:51:39;102553.64;;;16.32;59.78
65659;BME280;60181;53.258;6.932;2023-04-16T11:55:42;102555.18;;;16.33;59.83
65659;BME280;60181;53.258;6.932;2023-04-16T11:59:45;102556.10;;;16.34;59.89
65659;BME280;60181;53.258;6.932;2023-04-16T12:03:47;102557.28;;;16.35;59.68
65659;BME280;60181;53.258;6.932;2023-04-16T12:07:51;102558.04;;;16.36;59.92
65659;BME280;60181;53.258;6.932;2023-04-16T12:11:55;102559.99;;;16.36;59.81
65659;BME280;60181;53.258;6.932;2023-04-16T12:15:59;102561.60;;;16.37;59.86
65659;BME280;60181;53.258;6.932;2023-04-16T12:20:07;102562.43;;;16.38;59.86
65659;BME280;60181;53.258;6.932;2023-04-16T12:24:08;102564.49;;;16.38;59.88
65659;BME280;60181;53.258;6.932;2023-04-16T12:28:11;102566.24;;;16.38;59.96
65659;BME280;60181;53.258;6.932;2023-04-16T12:32:21;102566.89;;;16.38;59.84
65659;BME280;60181;53.258;6.932;2023-04-16T12:36:19;102568.16;;;16.38;59.92
65659;BME280;60181;53.258;6.932;2023-04-16T12:40:23;102569.65;;;16.38;60.02
65659;BME280;60181;53.258;6.932;2023-04-16T12:44:27;102569.98;;;16.38;59.99
65659;BME280;60181;53.258;6.932;2023-04-16T12:48:31;102570.31;;;16.38;59.98
65659;BME280;60181;53.258;6.932;2023-04-16T12:52:35;102570.31;;;16.38;59.86
65659;BME280;60181;53.258;6.932;2023-04-16T12:56:39;102570.81;;;16.38;60.03
65659;BME280;60181;53.258;6.932;2023-04-16T13:00:43;102571.85;;;16.38;60.07
65659;BME280;60181;53.258;6.932;2023-04-16T13:04:48;102573.67;;;16.38;60.16
65659;BME280;60181;53.258;6.932;2023-04-16T13:08:51;102574.90;;;16.37;60.10
65659;BME280;60181;53.258;6.932;2023-04-16T13:12:55;102575.66;;;16.37;60.02
65659;BME280;60181;53.258;6.932;2023-04-16T13:16:59;102577.31;;;16.37;60.19
65659;BME280;60181;53.258;6.932;2023-04-16T13:21:03;102577.03;;;16.36;60.12
65659;BME280;60181;53.258;6.932;2023-04-16T13:25:08;102578.02;;;16.36;60.23
65659;BME280;60181;53.258;6.932;2023-04-16T13:29:11;102578.27;;;16.36;60.18
65659;BME280;60181;53.258;6.932;2023-04-16T13:33:15;102578.48;;;16.36;60.09
65659;BME280;60181;53.258;6.932;2023-04-16T13:37:19;102577.40;;;16.36;60.21
65659;BME280;60181;53.258;6.932;2023-04-16T13:41:23;102576.99;;;16.35;60.23
65659;BME280;60181;53.258;6.932;2023-04-16T13:45:27;102576.49;;;16.35;60.01
65659;BME280;60181;53.258;6.932;2023-04-16T13:49:31;102575.83;;;16.35;60.09
65659;BME280;60181;53.258;6.932;2023-04-16T13:53:35;102575.74;;;16.36;59.85
65659;BME280;60181;53.258;6.932;2023-04-16T13:57:39;102575.54;;;16.36;59.71
65659;BME280;60181;53.258;6.932;2023-04-16T14:01:43;102575.49;;;16.37;60.13
65659;BME280;60181;53.258;6.932;2023-04-16T14:05:47;102574.83;;;16.38;59.98
65659;BME280;60181;53.258;6.932;2023-04-16T14:09:52;102574.37;;;16.39;60.00
65659;BME280;60181;53.258;6.932;2023-04-16T14:13:55;102573.67;;;16.38;60.30
65659;BME280;60181;53.258;6.932;2023-04-16T14:17:59;102574.17;;;16.38;60.33
65659;BME280;60181;53.258;6.932;2023-04-16T14:22:03;102573.93;;;16.37;60.07
65659;BME280;60181;53.258;6.932;2023-04-16T14:26:07;102572.92;;;16.38;59.76
65659;BME280;60181;53.258;6.932;2023-04-16T14:30:11;102571.80;;;16.38;59.67
65659;BME280;60181;53.258;6.932;2023-04-16T14:34:15;102570.64;;;16.38;59.79
65659;BME280;60181;53.258;6.932;2023-04-16T14:38:19;102571.61;;;16.38;59.88
65659;BME280;60181;53.258;6.932;2023-04-16T14:42:23;102572.14;;;16.37;59.97
65659;BME280;60181;53.258;6.932;2023-04-16T14:46:27;102573.93;;;16.35;60.02
65659;BME280;60181;53.258;6.932;2023-04-16T14:50:33;102576.25;;;16.33;60.23
65659;BME280;60181;53.258;6.932;2023-04-16T14:54:35;102578.08;;;16.30;60.22
65659;BME280;60181;53.258;6.932;2023-04-16T14:58:39;102578.47;;;16.30;60.09
65659;BME280;60181;53.258;6.932;2023-04-16T15:02:43;102577.22;;;16.29;59.94
65659;BME280;60181;53.258;6.932;2023-04-16T15:06:47;102576.72;;;16.30;60.03
65659;BME280;60181;53.258;6.932;2023-04-16T15:10:51;102576.32;;;16.30;59.94
65659;BME280;60181;53.258;6.932;2023-04-16T15:14:55;102576.28;;;16.29;60.10
65659;BME280;60181;53.258;6.932;2023-04-16T15:18:59;102576.53;;;16.29;60.02
65659;BME280;60181;53.258;6.932;2023-04-16T15:23:03;102577.31;;;16.30;59.85
65659;BME280;60181;53.258;6.932;2023-04-16T15:27:07;102578.86;;;16.32;59.88
65659;BME280;60181;53.258;6.932;2023-04-16T15:31:11;102581.47;;;16.33;59.86
65659;BME280;60181;53.258;6.932;2023-04-16T15:35:15;102583.98;;;16.34;59.94
65659;BME280;60181;53.258;6.932;2023-04-16T15:39:19;102586.55;;;16.34;60.13
65659;BME280;60181;53.258;6.932;2023-04-16T15:43:25;102589.45;;;16.32;60.18
65659;BME280;60181;53.258;6.932;2023-04-16T15:47:27;102592.43;;;16.30;60.34
65659;BME280;60181;53.258;6.932;2023-04-16T15:51:31;102594.89;;;16.29;60.24
65659;BME280;60181;53.258;6.932;2023-04-16T15:55:35;102595.70;;;16.28;60.20
65659;BME280;60181;53.258;6.932;2023-04-16T15:59:39;102597.66;;;16.27;60.32
65659;BME280;60181;53.258;6.932;2023-04-16T16:03:43;102599.11;;;16.27;60.22
65659;BME280;60181;53.258;6.932;2023-04-16T16:07:47;102599.99;;;16.25;60.37
65659;BME280;60181;53.258;6.932;2023-04-16T16:11:51;102600.44;;;16.24;60.38
65659;BME280;60181;53.258;6.932;2023-04-16T16:15:55;102600.85;;;16.24;60.33
65659;BME280;60181;53.258;6.932;2023-04-16T16:19:59;102602.72;;;16.23;60.41
65659;BME280;60181;53.258;6.932;2023-04-16T16:24:03;102603.92;;;16.22;60.49
65659;BME280;60181;53.258;6.932;2023-04-16T16:28:07;102603.88;;;16.21;60.53
65659;BME280;60181;53.258;6.932;2023-04-16T16:32:11;102605.09;;;16.20;60.58
65659;BME280;60181;53.258;6.932;2023-04-16T16:36:15;102606.32;;;16.19;60.50
65659;BME280;60181;53.258;6.932;2023-04-16T16:40:19;102607.69;;;16.18;60.63
65659;BME280;60181;53.258;6.932;2023-04-16T16:44:23;102609.97;;;16.17;60.58
65659;BME280;60181;53.258;6.932;2023-04-16T16:48:27;102611.76;;;16.17;60.63
65659;BME280;60181;53.258;6.932;2023-04-16T16:52:31;102613.66;;;16.16;60.51
65659;BME280;60181;53.258;6.932;2023-04-16T16:56:35;102616.96;;;16.16;60.63
65659;BME280;60181;53.258;6.932;2023-04-16T17:00:39;102619.48;;;16.16;60.61
65659;BME280;60181;53.258;6.932;2023-04-16T17:04:43;102621.80;;;16.15;60.66
65659;BME280;60181;53.258;6.932;2023-04-16T17:08:47;102623.83;;;16.14;60.82
65659;BME280;60181;53.258;6.932;2023-04-16T17:12:51;102625.24;;;16.12;60.91
65659;BME280;60181;53.258;6.932;2023-04-16T17:16:55;102626.94;;;16.11;60.95
65659;BME280;60181;53.258;6.932;2023-04-16T17:20:59;102627.20;;;16.09;61.08
65659;BME280;60181;53.258;6.932;2023-04-16T17:25:03;102627.98;;;16.08;60.92
65659;BME280;60181;53.258;6.932;2023-04-16T17:29:07;102628.28;;;16.06;61.07
65659;BME280;60181;53.258;6.932;2023-04-16T17:33:11;102628.66;;;16.05;60.96
65659;BME280;60181;53.258;6.932;2023-04-16T17:37:15;102628.16;;;16.03;61.15
65659;BME280;60181;53.258;6.932;2023-04-16T17:41:19;102629.20;;;16.01;61.04
65659;BME280;60181;53.258;6.932;2023-04-16T17:45:23;102630.53;;;16.00;61.11
65659;BME280;60181;53.258;6.932;2023-04-16T17:49:27;102632.09;;;15.99;61.08
65659;BME280;60181;53.258;6.932;2023-04-16T17:53:31;102634.38;;;15.98;61.19
65659;BME280;60181;53.258;6.932;2023-04-16T17:57:35;102638.39;;;15.98;61.17
65659;BME280;60181;53.258;6.932;2023-04-16T18:01:39;102641.48;;;15.96;61.22
65659;BME280;60181;53.258;6.932;2023-04-16T18:05:43;102646.98;;;15.95;61.08
65659;BME280;60181;53.258;6.932;2023-04-16T18:09:47;102653.17;;;15.95;61.07
65659;BME280;60181;53.258;6.932;2023-04-16T18:13:51;102658.89;;;15.95;61.08
65659;BME280;60181;53.258;6.932;2023-04-16T18:17:55;102663.89;;;15.94;61.12
65659;BME280;60181;53.258;6.932;2023-04-16T18:21:59;102668.43;;;15.94;61.03
65659;BME280;60181;53.258;6.932;2023-04-16T18:26:03;102672.81;;;15.94;61.03
65659;BME280;60181;53.258;6.932;2023-04-16T18:30:07;102677.61;;;15.94;61.03
65659;BME280;60181;53.258;6.932;2023-04-16T18:34:11;102682.07;;;15.94;61.71
65659;BME280;60181;53.258;6.932;2023-04-16T18:38:15;102686.87;;;15.94;61.41
65659;BME280;60181;53.258;6.932;2023-04-16T18:42:19;102692.43;;;15.95;61.37
65659;BME280;60181;53.258;6.932;2023-04-16T18:46:23;102696.53;;;15.94;61.50
65659;BME280;60181;53.258;6.932;2023-04-16T18:50:27;102700.05;;;15.93;61.65
65659;BME280;60181;53.258;6.932;2023-04-16T18:54:31;102703.48;;;15.92;61.65
65659;BME280;60181;53.258;6.932;2023-04-16T18:58:35;102706.96;;;15.92;61.63
65659;BME280;60181;53.258;6.932;2023-04-16T19:02:39;102710.90;;;15.91;61.67
65659;BME280;60181;53.258;6.932;2023-04-16T19:06:43;102714.27;;;15.91;61.67
65659;BME280;60181;53.258;6.932;2023-04-16T19:10:47;102718.36;;;15.90;61.68
65659;BME280;60181;53.258;6.932;2023-04-16T19:14:51;102723.14;;;15.90;61.72
65659;BME280;60181;53.258;6.932;2023-04-16T19:18:55;102727.86;;;15.89;61.70
65659;BME280;60181;53.258;6.932;2023-04-16T19:22:59;102732.28;;;15.89;61.71
65659;BME280;60181;53.258;6.932;2023-04-16T19:27:03;102735.42;;;15.88;61.72
65659;BME280;60181;53.258;6.932;2023-04-16T19:31:07;102738.85;;;15.88;61.74
65659;BME280;60181;53.258;6.932;2023-04-16T19:35:11;102741.00;;;15.87;61.75
65659;BME280;60181;53.258;6.932;2023-04-16T19:39:15;102743.60;;;15.87;61.79
65659;BME280;60181;53.258;6.932;2023-04-16T19:43:19;102744.76;;;15.86;61.80
65659;BME280;60181;53.258;6.932;2023-04-16T19:47:23;102747.03;;;15.86;61.84
65659;BME280;60181;53.258;6.932;2023-04-16T19:51:27;102750.50;;;15.86;61.78
65659;BME280;60181;53.258;6.932;2023-04-16T19:55:31;102753.48;;;15.85;61.83
65659;BME280;60181;53.258;6.932;2023-04-16T19:59:35;102756.46;;;15.85;61.80
65659;BME280;60181;53.258;6.932;2023-04-16T20:03:39;102758.68;;;15.85;61.85
65659;BME280;60181;53.258;6.932;2023-04-16T20:07:43;102760.51;;;15.85;61.85
65659;BME280;60181;53.258;6.932;2023-04-16T20:11:47;102762.16;;;15.84;61.88
65659;BME280;60181;53.258;6.932;2023-04-16T20:15:51;102764.22;;;15.84;61.87
65659;BME280;60181;53.258;6.932;2023-04-16T20:19:55;102767.00;;;15.83;61.87
65659;BME280;60181;53.258;6.932;2023-04-16T20:23:59;102769.64;;;15.83;61.87
65659;BME280;60181;53.258;6.932;2023-04-16T20:28:03;102772.58;;;15.82;61.85
65659;BME280;60181;53.258;6.932;2023-04-16T20:32:07;102773.23;;;15.82;61.88
65659;BME280;60181;53.258;6.932;2023-04-16T20:36:11;102773.68;;;15.81;62.37
65659;BME280;60181;53.258;6.932;2023-04-16T20:40:15;102775.17;;;15.83;62.47
65659;BME280;60181;53.258;6.932;2023-04-16T20:44:19;102776.46;;;15.84;62.18
65659;BME280;60181;53.258;6.932;2023-04-16T20:48:23;102778.44;;;15.84;62.35
65659;BME280;60181;53.258;6.932;2023-04-16T20:52:27;102779.92;;;15.84;62.60
65659;BME280;60181;53.258;6.932;2023-04-16T20:56:31;102781.82;;;15.84;62.65
65659;BME280;60181;53.258;6.932;2023-04-16T21:00:35;102782.57;;;15.84;62.85
65659;BME280;60181;53.258;6.932;2023-04-16T21:04:39;102782.48;;;15.82;61.19
65659;BME280;60181;53.258;6.932;2023-04-16T21:08:43;102781.82;;;15.78;61.21
65659;BME280;60181;53.258;6.932;2023-04-16T21:12:47;102781.57;;;15.73;60.82
65659;BME280;60181;53.258;6.932;2023-04-16T21:16:51;102780.25;;;15.67;60.60